Ursa Minor — ICGH — position and weather

sailwx.info

Track history (hours):
 
Tides and Currents Weather Stations Pressure Air Temp Water Temp Dewpoint Dewpoint Depression Visibility Wind Speed Wind Dir Waves Ship Positions

Ursa Minor

Last reported at 2016-Feb-13 14:29 UTC. Time now 2016-Feb-13 21:30 UTC.
Position N 37°53' E 015°48'.

Length 205 m; draft 8.4 m.

Type: Ship. MMSI: 247082300.

Date/timePositionNaut miles runAvg speedWind from/ knotsBaromVisibWave heightAir tempDewpointWater temp
2016-Feb-13 14:29N 37°53' E 015°48'1111.6
2016-Feb-13 13:33N 37°59' E 015°36'1212.3
2016-Feb-13 12:33N 38°12' E 015°35'10 9.9
2016-Feb-13 11:33N 38°21' E 015°38'1111.1
2016-Feb-13 10:33N 38°31' E 015°31'1212.3
2016-Feb-13 09:32N 38°42' E 015°24'12911.7
2016-Feb-12 22:33N 40°33' E 013°60'1412.0
2016-Feb-12 21:21N 40°42' E 013°45'22712.0
2016-Feb-12 02:28N 43°22' E 010°07'1111.8
2016-Feb-12 01:34N 43°31' E 009°59'1211.9
2016-Feb-12 00:34N 43°40' E 009°49'1211.6
2016-Feb-11 23:33N 43°49' E 009°38'1211.5
2016-Feb-11 22:34N 43°57' E 009°27'1212.2
2016-Feb-11 21:33N 44°06' E 009°15'1212.4
2016-Feb-11 20:33N 44°15' E 009°04'1211.7
2016-Feb-11 19:34N 44°24' E 008°53'1 0.7
2016-Feb-11 18:32N 44°24' E 008°52'0 0.0
2016-Feb-11 17:15N 44°24' E 008°52'0 0.0
2016-Feb-11 16:33N 44°24' E 008°52'0 0.0
2016-Feb-11 15:32N 44°24' E 008°52'0 0.0
2016-Feb-11 14:32N 44°24' E 008°52'0 0.0
2016-Feb-11 13:34N 44°24' E 008°52'0 0.2
2016-Feb-11 12:16N 44°24' E 008°52'2 2.8
2016-Feb-11 11:33N 44°23' E 008°55'1010.0
2016-Feb-11 10:33N 44°16' E 009°04'1211.6
2016-Feb-11 09:33N 44°07' E 009°15'1111.4
2016-Feb-11 08:33N 43°59' E 009°25'1212.0
2016-Feb-11 07:33N 43°50' E 009°36'1212.0
2016-Feb-11 06:33N 43°41' E 009°48'1110.9
2016-Feb-11 05:34N 43°33' E 009°57'1110.8
2016-Feb-11 04:34N 43°24' E 010°06'1010.5
2016-Feb-11 03:34N 43°15' E 010°13'37610.4
2016-Feb-09 15:31N 38°28' E 015°35'1212.2
2016-Feb-09 14:33N 38°18' E 015°43'1110.6
2016-Feb-09 13:33N 38°08' E 015°37'1111.3
2016-Feb-09 12:33N 37°57' E 015°39'1311.7
2016-Feb-09 11:25N 37°53' E 015°55'  
2016-Feb-06 10:30N 38°09' E 015°35'43112.0
2016-Feb-04 22:33N 43°47' E 009°39'1212.4
2016-Feb-04 21:33N 43°56' E 009°28'1211.9
2016-Feb-04 20:33N 44°05' E 009°16'1212.3
2016-Feb-04 19:33N 44°14' E 009°04'1211.8
2016-Feb-04 18:33N 44°23' E 008°55'2 2.5
2016-Feb-04 17:34N 44°24' E 008°52'0 0.0
2016-Feb-04 16:33N 44°24' E 008°52'0 0.0
2016-Feb-04 15:33N 44°24' E 008°52'0 0.0
2016-Feb-04 14:33N 44°24' E 008°52'0 0.2
2016-Feb-04 13:33N 44°24' E 008°52'3 3.3
2016-Feb-04 12:33N 44°23' E 008°56'10 9.8
2016-Feb-04 11:33N 44°15' E 009°05'1211.8
2016-Feb-04 10:33N 44°06' E 009°16'1212.0
2016-Feb-04 09:33N 43°57' E 009°27'1111.3
2016-Feb-04 08:33N 43°49' E 009°38'1211.7
2016-Feb-04 07:33N 43°40' E 009°48'1111.3
2016-Feb-04 06:34N 43°32' E 009°59'1111.3
2016-Feb-04 05:34N 43°23' E 010°08'1111.2
2016-Feb-04 04:33N 43°12' E 010°14'  
Track history (hours):
 
Tides and Currents Weather Stations Pressure Air Temp Water Temp Dewpoint Dewpoint Depression Visibility Wind Speed Wind Dir Waves Ship Positions

Ursa Minor

Last reported at 2016-Feb-13 14:29 UTC. Time now 2016-Feb-13 21:30 UTC.
Position N 37°53' E 015°48'.

Length 205 m; draft 8.4 m.

Type: Ship. MMSI: 247082300.

Date/timePositionNaut miles runAvg speedWind from/ knotsBaromVisibWave heightAir tempDewpointWater temp
2016-Feb-13 14:29N 37°53' E 015°48'1111.6
2016-Feb-13 13:33N 37°59' E 015°36'1212.3
2016-Feb-13 12:33N 38°12' E 015°35'10 9.9
2016-Feb-13 11:33N 38°21' E 015°38'1111.1
2016-Feb-13 10:33N 38°31' E 015°31'1212.3
2016-Feb-13 09:32N 38°42' E 015°24'12911.7
2016-Feb-12 22:33N 40°33' E 013°60'1412.0
2016-Feb-12 21:21N 40°42' E 013°45'22712.0
2016-Feb-12 02:28N 43°22' E 010°07'1111.8
2016-Feb-12 01:34N 43°31' E 009°59'1211.9
2016-Feb-12 00:34N 43°40' E 009°49'1211.6
2016-Feb-11 23:33N 43°49' E 009°38'1211.5
2016-Feb-11 22:34N 43°57' E 009°27'1212.2
2016-Feb-11 21:33N 44°06' E 009°15'1212.4
2016-Feb-11 20:33N 44°15' E 009°04'1211.7
2016-Feb-11 19:34N 44°24' E 008°53'1 0.7
2016-Feb-11 18:32N 44°24' E 008°52'0 0.0
2016-Feb-11 17:15N 44°24' E 008°52'0 0.0
2016-Feb-11 16:33N 44°24' E 008°52'0 0.0
2016-Feb-11 15:32N 44°24' E 008°52'0 0.0
2016-Feb-11 14:32N 44°24' E 008°52'0 0.0
2016-Feb-11 13:34N 44°24' E 008°52'0 0.2
2016-Feb-11 12:16N 44°24' E 008°52'2 2.8
2016-Feb-11 11:33N 44°23' E 008°55'1010.0
2016-Feb-11 10:33N 44°16' E 009°04'1211.6
2016-Feb-11 09:33N 44°07' E 009°15'1111.4
2016-Feb-11 08:33N 43°59' E 009°25'1212.0
2016-Feb-11 07:33N 43°50' E 009°36'1212.0
2016-Feb-11 06:33N 43°41' E 009°48'1110.9
2016-Feb-11 05:34N 43°33' E 009°57'1110.8
2016-Feb-11 04:34N 43°24' E 010°06'1010.5
2016-Feb-11 03:34N 43°15' E 010°13'37610.4
2016-Feb-09 15:31N 38°28' E 015°35'1212.2
2016-Feb-09 14:33N 38°18' E 015°43'1110.6
2016-Feb-09 13:33N 38°08' E 015°37'1111.3
2016-Feb-09 12:33N 37°57' E 015°39'1311.7
2016-Feb-09 11:25N 37°53' E 015°55'  
2016-Feb-06 10:30N 38°09' E 015°35'43112.0
2016-Feb-04 22:33N 43°47' E 009°39'1212.4
2016-Feb-04 21:33N 43°56' E 009°28'1211.9
2016-Feb-04 20:33N 44°05' E 009°16'1212.3
2016-Feb-04 19:33N 44°14' E 009°04'1211.8
2016-Feb-04 18:33N 44°23' E 008°55'2 2.5
2016-Feb-04 17:34N 44°24' E 008°52'0 0.0
2016-Feb-04 16:33N 44°24' E 008°52'0 0.0
2016-Feb-04 15:33N 44°24' E 008°52'0 0.0
2016-Feb-04 14:33N 44°24' E 008°52'0 0.2
2016-Feb-04 13:33N 44°24' E 008°52'3 3.3
2016-Feb-04 12:33N 44°23' E 008°56'10 9.8
2016-Feb-04 11:33N 44°15' E 009°05'1211.8
2016-Feb-04 10:33N 44°06' E 009°16'1212.0
2016-Feb-04 09:33N 43°57' E 009°27'1111.3
2016-Feb-04 08:33N 43°49' E 009°38'1211.7
2016-Feb-04 07:33N 43°40' E 009°48'1111.3
2016-Feb-04 06:34N 43°32' E 009°59'1111.3
2016-Feb-04 05:34N 43°23' E 010°08'1111.2
2016-Feb-04 04:33N 43°12' E 010°14'  

Dump ship's entire track history